Time;durP1;ratioP1;P1;durP2;ratioP2;P2;SDS_P1;SDS_P2;PMS_P1;PMS_P2;Temp;Humidity;BMP_temperature;BMP_pressure;BME280_temperature;BME280_humidity;BME280_pressure;Samples;Min_cycle;Max_cycle;Signal;HPM_P1;HPM_P2
2022/09/27 00:00:23;;;;;;;0.50;0.50;;;10.00;99.90;;;;;;5015438;28;20195;-70
2022/09/27 00:02:50;;;;;;;0.60;0.60;;;10.00;99.90;;;;;;5015492;28;20198;-70
2022/09/27 00:05:16;;;;;;;0.55;0.55;;;10.00;99.90;;;;;;5014221;28;20199;-70
2022/09/27 00:07:43;;;;;;;0.50;0.50;;;10.10;99.90;;;;;;5030724;28;20210;-70
2022/09/27 00:10:09;;;;;;;0.60;0.60;;;10.00;99.90;;;;;;5031006;28;20293;-71
2022/09/27 00:12:36;;;;;;;0.70;0.70;;;10.00;99.90;;;;;;5015251;28;20707;-71
2022/09/27 00:15:02;;;;;;;0.50;0.50;;;10.00;99.90;;;;;;5015526;28;20325;-71
2022/09/27 00:17:28;;;;;;;0.50;0.50;;;10.00;99.90;;;;;;5013813;28;20206;-70
2022/09/27 00:19:57;;;;;;;0.52;0.52;;;10.10;99.90;;;;;;5015437;28;20199;-70
2022/09/27 00:22:24;;;;;;;0.80;0.80;;;10.00;99.90;;;;;;5013897;28;20228;-70
2022/09/27 00:24:50;;;;;;;0.70;0.70;;;10.00;99.90;;;;;;5015135;28;20618;-71
2022/09/27 00:27:17;;;;;;;0.50;0.50;;;10.00;99.90;;;;;;5015076;28;20203;-71
2022/09/27 00:29:44;;;;;;;0.60;0.60;;;10.00;99.90;;;;;;5015292;28;20298;-71
2022/09/27 00:32:09;;;;;;;0.50;0.50;;;10.00;99.90;;;;;;5015260;28;20191;-71
2022/09/27 00:34:36;;;;;;;0.50;0.50;;;10.00;99.90;;;;;;5015150;28;20206;-70
2022/09/27 00:37:02;;;;;;;0.65;0.65;;;10.00;99.90;;;;;;5015115;28;20645;-70
2022/09/27 00:39:28;;;;;;;0.57;0.57;;;9.90;99.90;;;;;;5015146;28;20680;-70
2022/09/27 00:41:53;;;;;;;1.35;1.25;;;9.90;99.90;;;;;;5014772;28;20273;-69
2022/09/27 00:44:25;;;;;;;0.52;0.52;;;9.90;99.90;;;;;;5014210;28;20205;-70
2022/09/27 00:47:12;;;;;;;0.50;0.50;;;9.90;99.90;;;;;;5014881;28;20249;-70
2022/09/27 00:50:00;;;;;;;0.60;0.60;;;9.90;99.90;;;;;;5014404;28;20261;-70
2022/09/27 00:52:46;;;;;;;0.50;0.50;;;9.90;99.90;;;;;;5012518;28;20241;-71
2022/09/27 00:55:18;;;;;;;0.50;0.50;;;9.90;99.90;;;;;;5039177;28;20210;-69
2022/09/27 00:57:46;;;;;;;0.90;0.82;;;9.90;99.90;;;;;;5014533;28;20213;-71
2022/09/27 01:00:14;;;;;;;0.50;0.50;;;9.90;99.90;;;;;;5014468;28;20191;-70
2022/09/27 01:02:44;;;;;;;0.60;0.60;;;9.90;99.90;;;;;;5014312;28;21451;-71
2022/09/27 01:05:12;;;;;;;0.70;0.70;;;9.90;99.90;;;;;;5014472;28;20195;-70
2022/09/27 01:07:38;;;;;;;0.50;0.50;;;9.90;99.90;;;;;;5012895;28;20726;-70
2022/09/27 01:10:05;;;;;;;0.95;0.95;;;9.90;99.90;;;;;;5014340;28;20294;-70
2022/09/27 01:12:48;;;;;;;0.70;0.70;;;9.90;99.90;;;;;;5014251;28;20249;-70
2022/09/27 01:15:22;;;;;;;0.60;0.60;;;9.90;99.90;;;;;;5014300;28;20245;-70
2022/09/27 01:18:06;;;;;;;0.60;0.60;;;9.90;99.90;;;;;;5014235;28;20195;-70
2022/09/27 01:20:51;;;;;;;0.50;0.50;;;9.80;99.90;;;;;;5013979;28;20222;-70
2022/09/27 01:23:35;;;;;;;0.60;0.60;;;9.80;99.90;;;;;;5014358;28;20651;-70
2022/09/27 01:26:06;;;;;;;0.60;0.60;;;9.80;99.90;;;;;;4975038;28;20586;-70
2022/09/27 01:28:53;;;;;;;0.60;0.60;;;9.80;99.90;;;;;;4974782;28;20280;-69
2022/09/27 01:31:34;;;;;;;0.55;0.55;;;9.80;99.90;;;;;;4955433;28;20201;-70
2022/09/27 01:34:22;;;;;;;0.65;0.65;;;9.90;99.90;;;;;;4986613;28;20201;-70
2022/09/27 01:37:21;;;;;;;0.77;0.77;;;9.90;99.90;;;;;;4955496;28;20205;-70
2022/09/27 01:40:00;;;;;;;0.60;0.60;;;9.80;99.90;;;;;;4963243;28;20812;-70
2022/09/27 01:42:40;;;;;;;0.60;0.60;;;9.80;99.90;;;;;;4955404;28;20286;-70
2022/09/27 01:45:28;;;;;;;1.02;1.00;;;9.80;99.90;;;;;;4966905;28;20199;-70
2022/09/27 01:47:57;;;;;;;0.60;0.60;;;9.80;99.90;;;;;;4974517;28;20223;-70
2022/09/27 01:50:35;;;;;;;0.50;0.50;;;9.80;99.90;;;;;;4974321;28;20250;-70
2022/09/27 01:53:06;;;;;;;0.60;0.60;;;9.80;99.90;;;;;;4974549;28;20199;-70
2022/09/27 01:55:36;;;;;;;0.68;0.68;;;9.80;99.90;;;;;;4974361;28;20196;-69
2022/09/27 01:58:12;;;;;;;0.60;0.60;;;9.80;99.90;;;;;;5005184;28;20727;-70
2022/09/27 02:00:39;;;;;;;0.60;0.60;;;9.80;99.90;;;;;;4971999;28;20203;-69
2022/09/27 02:03:11;;;;;;;0.60;0.60;;;9.80;99.90;;;;;;4955180;28;20200;-70
2022/09/27 02:05:53;;;;;;;0.70;0.65;;;9.80;99.90;;;;;;4954896;28;20678;-70
2022/09/27 02:08:35;;;;;;;0.60;0.60;;;9.80;99.90;;;;;;4970892;28;20596;-69
2022/09/27 02:11:04;;;;;;;0.50;0.50;;;9.80;99.90;;;;;;4974394;28;20663;-70
2022/09/27 02:13:49;;;;;;;0.60;0.60;;;9.80;99.90;;;;;;4974162;28;20585;-70
2022/09/27 02:17:02;;;;;;;0.50;0.50;;;9.80;99.90;;;;;;4974176;28;20250;-70
2022/09/27 02:20:00;;;;;;;0.60;0.60;;;9.80;99.90;;;;;;4991227;28;20207;-70
2022/09/27 02:22:39;;;;;;;0.70;0.70;;;9.80;99.90;;;;;;4954776;28;20572;-70
2022/09/27 02:25:20;;;;;;;0.60;0.60;;;9.80;99.90;;;;;;4981456;28;20705;-70
2022/09/27 02:27:54;;;;;;;0.50;0.50;;;9.80;99.90;;;;;;5028288;28;20792;-70
2022/09/27 02:30:20;;;;;;;0.60;0.60;;;9.80;99.90;;;;;;5012871;28;20202;-70
2022/09/27 02:32:46;;;;;;;0.65;0.65;;;9.80;99.90;;;;;;5012995;28;20197;-70
2022/09/27 02:35:35;;;;;;;0.60;0.60;;;9.80;99.90;;;;;;5013120;28;20684;-70
2022/09/27 02:38:02;;;;;;;0.90;0.90;;;9.80;99.90;;;;;;5007372;28;20206;-70
2022/09/27 02:40:42;;;;;;;0.93;0.93;;;9.70;99.90;;;;;;5012723;28;20695;-70
2022/09/27 02:43:07;;;;;;;0.60;0.60;;;9.80;99.90;;;;;;5012864;28;20218;-70
2022/09/27 02:46:03;;;;;;;0.63;0.63;;;9.80;99.90;;;;;;5010547;28;20230;-70
2022/09/27 02:48:45;;;;;;;0.90;0.90;;;9.80;99.90;;;;;;5012653;28;20296;-70
2022/09/27 02:51:32;;;;;;;0.50;0.50;;;9.70;99.90;;;;;;5012935;28;20658;-69
2022/09/27 02:54:28;;;;;;;0.60;0.60;;;9.80;99.90;;;;;;5012896;28;20650;-69
2022/09/27 02:57:00;;;;;;;0.60;0.60;;;9.70;99.90;;;;;;5012920;28;20195;-69
2022/09/27 02:59:35;;;;;;;0.60;0.60;;;9.70;99.90;;;;;;5012721;28;20201;-70
2022/09/27 03:02:37;;;;;;;0.60;0.60;;;9.70;99.90;;;;;;5003753;28;20206;-70
2022/09/27 03:05:07;;;;;;;0.90;0.90;;;9.70;99.90;;;;;;4991210;28;20305;-70
2022/09/27 03:07:33;;;;;;;10.25;2.03;;;9.70;99.90;;;;;;4993140;28;20555;-69
2022/09/27 03:09:59;;;;;;;0.65;0.65;;;9.70;99.90;;;;;;4996982;28;20230;-70
2022/09/27 03:12:25;;;;;;;0.60;0.60;;;9.70;99.90;;;;;;4996839;28;20234;-70
2022/09/27 03:15:00;;;;;;;0.50;0.50;;;9.80;99.90;;;;;;5002515;28;20194;-70
2022/09/27 03:17:26;;;;;;;0.55;0.55;;;9.70;99.90;;;;;;5016369;28;20626;-70
2022/09/27 03:19:52;;;;;;;0.40;0.40;;;9.60;99.90;;;;;;5016340;28;20274;-71
2022/09/27 03:22:18;;;;;;;0.95;0.75;;;9.70;99.90;;;;;;5016358;28;20249;-71
2022/09/27 03:24:44;;;;;;;0.60;0.60;;;9.70;99.90;;;;;;5016058;28;20233;-71
2022/09/27 03:27:11;;;;;;;0.70;0.70;;;9.70;99.90;;;;;;5015014;28;20203;-70
2022/09/27 03:29:37;;;;;;;0.70;0.70;;;9.70;99.90;;;;;;5014809;28;20693;-70
2022/09/27 03:32:03;;;;;;;0.60;0.60;;;9.60;99.90;;;;;;5016199;28;20197;-70
2022/09/27 03:34:29;;;;;;;0.70;0.70;;;9.60;99.90;;;;;;5016053;28;20205;-70
2022/09/27 03:36:55;;;;;;;0.75;0.75;;;9.60;99.90;;;;;;5016161;28;20199;-70
2022/09/27 03:39:21;;;;;;;0.60;0.60;;;9.60;99.90;;;;;;5015937;28;20565;-70
2022/09/27 03:41:47;;;;;;;0.60;0.60;;;9.60;99.90;;;;;;5030902;28;20198;-70
2022/09/27 03:44:12;;;;;;;0.73;0.70;;;9.60;99.90;;;;;;5011235;28;20282;-70
2022/09/27 03:46:38;;;;;;;0.60;0.60;;;9.60;99.90;;;;;;4996223;28;20211;-70
2022/09/27 03:49:04;;;;;;;0.60;0.60;;;9.60;99.90;;;;;;5027858;28;20212;-70
2022/09/27 03:51:29;;;;;;;0.60;0.60;;;9.60;99.90;;;;;;4996180;28;20195;-70
2022/09/27 03:53:55;;;;;;;0.65;0.65;;;9.60;99.90;;;;;;4996163;28;20283;-71
2022/09/27 03:56:21;;;;;;;0.60;0.60;;;9.60;99.90;;;;;;4996017;28;20192;-69
2022/09/27 03:58:47;;;;;;;0.52;0.52;;;9.60;99.90;;;;;;4996182;28;20188;-70
2022/09/27 04:01:13;;;;;;;0.50;0.50;;;9.50;99.90;;;;;;4994625;28;20207;-70
2022/09/27 04:03:39;;;;;;;0.60;0.60;;;9.60;99.90;;;;;;4995872;28;20195;-70
2022/09/27 04:06:05;;;;;;;0.60;0.60;;;9.50;99.90;;;;;;4996061;28;20201;-70
2022/09/27 04:08:30;;;;;;;0.50;0.50;;;9.60;99.90;;;;;;4995682;28;20253;-70
2022/09/27 04:10:57;;;;;;;0.60;0.60;;;9.60;99.90;;;;;;4995827;28;20196;-70
2022/09/27 04:13:23;;;;;;;0.90;0.90;;;9.60;99.90;;;;;;4995739;28;20195;-70
2022/09/27 04:15:49;;;;;;;0.70;0.70;;;9.50;99.90;;;;;;4995826;28;20192;-70
2022/09/27 04:18:15;;;;;;;0.70;0.70;;;9.60;99.90;;;;;;5002288;28;20213;-70
2022/09/27 04:20:41;;;;;;;0.50;0.50;;;9.60;99.90;;;;;;5014381;28;20281;-70
2022/09/27 04:23:07;;;;;;;0.60;0.60;;;9.60;99.90;;;;;;5030387;28;20606;-69
2022/09/27 04:25:33;;;;;;;0.50;0.50;;;9.60;99.90;;;;;;5013674;28;20637;-69
2022/09/27 04:28:00;;;;;;;0.60;0.60;;;9.50;99.90;;;;;;5030436;28;20237;-70
2022/09/27 04:30:27;;;;;;;0.60;0.60;;;9.50;99.90;;;;;;5014778;28;20222;-69
2022/09/27 04:32:52;;;;;;;0.60;0.60;;;9.50;99.90;;;;;;5015235;28;20202;-69
2022/09/27 04:38:03;;;;;;;0.60;0.60;;;9.50;99.90;;;;;;5014647;28;20252;-70
2022/09/27 04:40:29;;;;;;;4.75;1.00;;;9.50;99.90;;;;;;5014797;28;20199;-70
2022/09/27 04:42:55;;;;;;;0.60;0.60;;;9.50;99.90;;;;;;5014977;28;20202;-70
2022/09/27 04:45:21;;;;;;;0.60;0.60;;;9.50;99.90;;;;;;5000639;28;20663;-70
2022/09/27 04:47:48;;;;;;;0.52;0.52;;;9.50;99.90;;;;;;4995101;28;20278;-69
2022/09/27 04:50:16;;;;;;;1.50;1.35;;;9.50;99.90;;;;;;4993875;28;20214;-73
2022/09/27 04:52:42;;;;;;;0.60;0.60;;;9.50;99.90;;;;;;5026676;28;20200;-72
2022/09/27 04:55:09;;;;;;;0.55;0.55;;;9.50;99.90;;;;;;4993729;28;20206;-71
2022/09/27 04:57:35;;;;;;;0.60;0.60;;;9.40;99.90;;;;;;4994901;28;20776;-71
2022/09/27 05:00:03;;;;;;;0.80;0.80;;;9.50;99.90;;;;;;4994950;28;20215;-70
2022/09/27 05:02:29;;;;;;;0.50;0.50;;;9.50;99.90;;;;;;4994765;28;20192;-70
2022/09/27 05:04:58;;;;;;;0.65;0.65;;;9.50;99.90;;;;;;4995098;28;20622;-70
2022/09/27 05:07:28;;;;;;;0.50;0.50;;;9.50;99.90;;;;;;5000904;28;20560;-70
2022/09/27 05:09:55;;;;;;;1.00;0.90;;;9.50;99.90;;;;;;5014323;28;20202;-70
2022/09/27 05:12:20;;;;;;;0.60;0.60;;;9.50;99.90;;;;;;5014185;28;20218;-69
2022/09/27 05:14:46;;;;;;;0.50;0.50;;;9.50;99.90;;;;;;5014209;28;20229;-70
2022/09/27 05:17:12;;;;;;;0.75;0.75;;;9.50;99.90;;;;;;5014412;28;20241;-70
2022/09/27 05:19:38;;;;;;;0.60;0.60;;;9.50;99.90;;;;;;5014069;28;20223;-69
2022/09/27 05:22:07;;;;;;;0.75;0.75;;;9.50;99.90;;;;;;5014273;28;20234;-70
2022/09/27 05:24:34;;;;;;;0.60;0.60;;;9.50;99.90;;;;;;5013820;28;20317;-69
2022/09/27 05:27:00;;;;;;;0.60;0.60;;;9.50;99.90;;;;;;5029269;28;20199;-69
2022/09/27 05:29:27;;;;;;;0.60;0.60;;;9.50;99.90;;;;;;5013905;28;20214;-70
2022/09/27 05:31:52;;;;;;;0.70;0.70;;;9.50;99.90;;;;;;5012822;28;20218;-71
2022/09/27 05:34:19;;;;;;;0.50;0.50;;;9.50;99.90;;;;;;5013634;28;20237;-70
2022/09/27 05:36:49;;;;;;;0.60;0.60;;;9.50;99.90;;;;;;5013876;28;20221;-70
2022/09/27 05:39:18;;;;;;;0.60;0.60;;;9.50;99.90;;;;;;5013934;28;20666;-71
2022/09/27 05:41:45;;;;;;;0.60;0.60;;;9.50;99.90;;;;;;5013633;28;20277;-70
2022/09/27 05:44:12;;;;;;;0.70;0.70;;;9.50;99.90;;;;;;5009332;28;20250;-70
2022/09/27 05:46:38;;;;;;;0.60;0.60;;;9.60;99.90;;;;;;4993938;28;20196;-70
2022/09/27 05:49:04;;;;;;;0.65;0.65;;;9.50;99.90;;;;;;4994043;28;20204;-70
2022/09/27 05:51:30;;;;;;;0.70;0.70;;;9.60;99.90;;;;;;4993985;28;20195;-70
2022/09/27 05:53:55;;;;;;;0.60;0.60;;;9.60;99.90;;;;;;4994295;28;20282;-71
2022/09/27 05:56:21;;;;;;;0.70;0.70;;;9.60;99.90;;;;;;4993763;28;20196;-70
2022/09/27 05:58:47;;;;;;;0.52;0.52;;;9.60;99.90;;;;;;4993952;28;20675;-70
2022/09/27 06:01:13;;;;;;;0.60;0.60;;;9.60;99.90;;;;;;4993786;28;20206;-70
2022/09/27 06:03:39;;;;;;;0.70;0.70;;;9.60;99.90;;;;;;4992259;28;20200;-70
2022/09/27 06:06:06;;;;;;;0.65;0.65;;;9.50;99.90;;;;;;4993825;28;20198;-71
2022/09/27 06:08:33;;;;;;;0.50;0.50;;;9.60;99.90;;;;;;4993713;28;20662;-71
2022/09/27 06:11:06;;;;;;;0.60;0.60;;;9.60;99.90;;;;;;5002159;28;20686;-71
2022/09/27 06:13:32;;;;;;;0.50;0.50;;;9.60;99.90;;;;;;5011840;28;20199;-70
2022/09/27 06:15:58;;;;;;;0.60;0.60;;;9.60;99.90;;;;;;5013241;28;20191;-71
2022/09/27 06:18:24;;;;;;;0.70;0.70;;;9.70;99.90;;;;;;5013110;28;20795;-71
2022/09/27 06:20:51;;;;;;;0.60;0.60;;;9.70;99.90;;;;;;5013257;28;20261;-71
2022/09/27 06:23:24;;;;;;;0.60;0.60;;;9.70;99.90;;;;;;5013529;28;20582;-71
2022/09/27 06:25:50;;;;;;;0.68;0.68;;;9.70;99.90;;;;;;5012908;28;20591;-71
2022/09/27 06:28:17;;;;;;;0.70;0.70;;;9.70;99.90;;;;;;5013017;28;20353;-71
2022/09/27 06:30:44;;;;;;;0.70;0.70;;;9.80;99.90;;;;;;5012866;28;20689;-71
2022/09/27 06:33:18;;;;;;;0.70;0.70;;;9.80;99.90;;;;;;5011776;28;20785;-71
2022/09/27 06:35:45;;;;;;;1.05;0.95;;;9.80;99.90;;;;;;5012941;28;20658;-70
2022/09/27 06:38:14;;;;;;;2.25;1.67;;;9.80;99.90;;;;;;5013172;28;20186;-71
2022/09/27 06:40:46;;;;;;;0.90;0.90;;;9.90;99.90;;;;;;5013107;28;20226;-71
2022/09/27 06:43:14;;;;;;;0.60;0.60;;;9.90;99.90;;;;;;5012565;28;20195;-69
2022/09/27 06:45:40;;;;;;;0.60;0.60;;;10.00;99.90;;;;;;4996252;28;20227;-69
2022/09/27 06:48:08;;;;;;;0.60;0.60;;;10.10;99.90;;;;;;4993521;28;20227;-69
2022/09/27 06:50:36;;;;;;;0.60;0.60;;;10.20;99.90;;;;;;4993086;28;20206;-70
2022/09/27 06:53:03;;;;;;;0.50;0.50;;;10.30;99.90;;;;;;4993239;28;20539;-69
2022/09/27 06:55:29;;;;;;;0.65;0.65;;;10.40;99.90;;;;;;4993211;28;20196;-69
2022/09/27 07:00:46;;;;;;;0.60;0.60;;;10.50;99.90;;;;;;4993255;28;20230;-70
2022/09/27 07:03:13;;;;;;;0.80;0.75;;;10.60;99.90;;;;;;4993296;28;20651;-70
2022/09/27 07:05:42;;;;;;;0.60;0.60;;;10.70;99.90;;;;;;4993336;28;20202;-69
2022/09/27 07:08:10;;;;;;;0.60;0.60;;;10.70;99.90;;;;;;4993556;28;20689;-69
2022/09/27 07:10:37;;;;;;;0.60;0.60;;;10.80;99.90;;;;;;4992853;28;20258;-69
2022/09/27 07:13:06;;;;;;;0.77;0.77;;;10.80;99.90;;;;;;5008223;28;20674;-69
2022/09/27 07:15:31;;;;;;;0.50;0.50;;;10.80;99.90;;;;;;4992911;28;20192;-69
2022/09/27 07:17:58;;;;;;;0.50;0.50;;;10.90;99.90;;;;;;4993179;28;20205;-70
2022/09/27 07:20:30;;;;;;;0.63;0.63;;;10.90;99.90;;;;;;5007902;28;20265;-70
2022/09/27 07:22:57;;;;;;;6.35;1.70;;;10.90;99.90;;;;;;4993338;28;20350;-70
2022/09/27 07:25:23;;;;;;;1.70;1.52;;;10.90;99.90;;;;;;4995700;28;20238;-69
2022/09/27 07:27:51;;;;;;;0.60;0.60;;;10.90;99.90;;;;;;5012549;28;20195;-70
2022/09/27 07:30:18;;;;;;;0.60;0.60;;;11.00;99.90;;;;;;5012469;28;20214;-70
2022/09/27 07:32:44;;;;;;;0.73;0.73;;;11.00;99.90;;;;;;5012507;28;20195;-70
2022/09/27 07:35:13;;;;;;;1.50;1.40;;;11.00;99.90;;;;;;5012484;28;20206;-70
2022/09/27 07:37:40;;;;;;;0.80;0.80;;;11.00;99.90;;;;;;5012223;28;20561;-70
2022/09/27 07:40:08;;;;;;;0.65;0.65;;;11.00;99.90;;;;;;5012468;28;20201;-70
2022/09/27 07:42:37;;;;;;;0.70;0.70;;;11.10;99.90;;;;;;5011013;28;20620;-70
2022/09/27 07:45:07;;;;;;;0.50;0.50;;;11.10;99.90;;;;;;5000834;28;20287;-70
2022/09/27 07:47:33;;;;;;;1.48;1.30;;;11.20;99.90;;;;;;4992494;28;20274;-70
2022/09/27 07:49:59;;;;;;;0.68;0.68;;;11.20;99.90;;;;;;4992621;28;20311;-71
2022/09/27 07:52:24;;;;;;;0.50;0.50;;;11.20;99.90;;;;;;4992574;28;20270;-70
2022/09/27 07:54:50;;;;;;;0.70;0.70;;;11.20;99.90;;;;;;4993386;28;20223;-70
2022/09/27 07:57:20;;;;;;;0.50;0.50;;;11.20;99.90;;;;;;5011196;28;20307;-70
2022/09/27 07:59:46;;;;;;;0.50;0.50;;;11.30;99.90;;;;;;5007903;28;20203;-70
2022/09/27 08:02:15;;;;;;;0.50;0.50;;;11.40;99.90;;;;;;5015660;28;20313;-70
2022/09/27 08:04:42;;;;;;;0.57;0.57;;;11.40;99.90;;;;;;5015583;28;20708;-70
2022/09/27 08:07:09;;;;;;;0.50;0.50;;;11.50;99.90;;;;;;5030652;28;20214;-70
2022/09/27 08:09:35;;;;;;;1.02;0.95;;;11.60;99.90;;;;;;5015300;28;20777;-70
2022/09/27 08:12:03;;;;;;;0.50;0.50;;;11.50;99.90;;;;;;5015512;28;20191;-70
2022/09/27 08:14:29;;;;;;;0.50;0.50;;;11.50;99.90;;;;;;5015324;28;20194;-70
2022/09/27 08:16:55;;;;;;;0.40;0.40;;;11.50;99.90;;;;;;5015486;28;20650;-70
2022/09/27 08:19:20;;;;;;;2.05;1.85;;;11.40;99.90;;;;;;5015235;28;20195;-70
2022/09/27 08:21:46;;;;;;;0.73;0.73;;;11.30;99.90;;;;;;5014951;28;20685;-70
2022/09/27 08:27:00;;;;;;;0.60;0.60;;;11.20;99.90;;;;;;5014879;28;20230;-70
2022/09/27 08:29:26;;;;;;;0.73;0.73;;;11.20;99.90;;;;;;5015036;28;20294;-70
2022/09/27 08:31:53;;;;;;;0.70;0.70;;;11.20;99.90;;;;;;5015175;28;20214;-70
2022/09/27 08:34:22;;;;;;;1.00;0.95;;;11.20;99.90;;;;;;5013770;28;20191;-70
2022/09/27 08:36:48;;;;;;;0.60;0.60;;;11.20;99.90;;;;;;5014966;28;20562;-70
2022/09/27 08:39:14;;;;;;;0.60;0.60;;;11.30;99.90;;;;;;5015005;28;20195;-70
2022/09/27 08:41:46;;;;;;;1.88;1.05;;;11.30;99.90;;;;;;5014656;28;20199;-70
2022/09/27 08:44:11;;;;;;;0.82;0.70;;;11.30;99.90;;;;;;5010278;28;20249;-71
2022/09/27 08:46:57;;;;;;;1.27;1.17;;;11.40;99.90;;;;;;4995045;28;20204;-70
2022/09/27 08:49:42;;;;;;;0.50;0.50;;;11.40;99.90;;;;;;4995037;28;20568;-70
2022/09/27 08:52:28;;;;;;;0.75;0.75;;;11.40;99.90;;;;;;4998914;28;20199;-70
2022/09/27 08:54:57;;;;;;;0.50;0.50;;;11.50;99.90;;;;;;5014710;28;20195;-70
2022/09/27 08:57:24;;;;;;;1.65;1.50;;;11.60;99.90;;;;;;5014504;28;20273;-70
2022/09/27 09:00:10;;;;;;;0.40;0.40;;;11.60;99.90;;;;;;5014659;28;20194;-71
2022/09/27 09:02:37;;;;;;;0.22;0.22;;;11.60;99.90;;;;;;5014420;28;20191;-70
2022/09/27 09:05:10;;;;;;;0.68;0.68;;;11.60;99.90;;;;;;5014593;28;20562;-70
2022/09/27 09:07:39;;;;;;;0.73;0.57;;;11.60;99.90;;;;;;5014051;28;20257;-70
2022/09/27 09:13:50;;;;;;;0.20;0.20;;;11.40;99.90;;;;;;4994768;28;20578;-70
2022/09/27 09:16:27;;;;;;;0.30;0.30;;;11.30;99.90;;;;;;5009763;28;20202;-70
2022/09/27 09:19:02;;;;;;;0.52;0.52;;;11.30;99.90;;;;;;5005929;28;20190;-70
2022/09/27 09:21:39;;;;;;;0.30;0.30;;;11.40;99.90;;;;;;5045750;28;20203;-70
2022/09/27 09:24:07;;;;;;;0.20;0.20;;;11.30;99.90;;;;;;5014267;28;20226;-70
2022/09/27 09:27:02;;;;;;;0.20;0.20;;;11.30;99.90;;;;;;5013808;28;20284;-70
2022/09/27 09:29:46;;;;;;;0.20;0.20;;;11.40;99.90;;;;;;5009037;28;20724;-70
2022/09/27 09:32:21;;;;;;;0.30;0.30;;;11.30;99.90;;;;;;5013995;28;20680;-70
2022/09/27 09:34:53;;;;;;;0.20;0.20;;;11.40;99.90;;;;;;5013993;28;20194;-70
2022/09/27 09:37:40;;;;;;;0.20;0.20;;;11.40;99.90;;;;;;5013842;28;20561;-70
2022/09/27 09:40:18;;;;;;;0.20;0.20;;;11.50;99.90;;;;;;5013976;28;20202;-70
2022/09/27 09:43:00;;;;;;;0.20;0.20;;;11.50;99.90;;;;;;5013811;28;20197;-70
2022/09/27 09:45:27;;;;;;;0.38;0.38;;;11.50;99.90;;;;;;4999046;28;20713;-70
2022/09/27 09:48:01;;;;;;;0.20;0.20;;;11.60;99.90;;;;;;5025489;28;20195;-69
2022/09/27 09:50:38;;;;;;;0.98;0.45;;;11.60;99.90;;;;;;4993653;28;20215;-70
2022/09/27 09:53:24;;;;;;;0.20;0.20;;;11.70;99.90;;;;;;4993970;28;20299;-70
2022/09/27 09:56:17;;;;;;;0.38;0.35;;;11.90;99.90;;;;;;5008953;28;20639;-70
2022/09/27 09:58:54;;;;;;;0.30;0.30;;;12.00;99.90;;;;;;4995656;28;20207;-70
2022/09/27 10:01:32;;;;;;;0.15;0.15;;;12.00;99.90;;;;;;4993574;28;20195;-69
2022/09/27 10:03:57;;;;;;;0.20;0.20;;;12.10;99.90;;;;;;5006051;28;20206;-69
2022/09/27 10:06:25;;;;;;;0.20;0.20;;;12.00;99.90;;;;;;4997770;28;20199;-70
2022/09/27 10:08:53;;;;;;;0.38;0.38;;;11.90;99.90;;;;;;4993636;28;20184;-70
2022/09/27 10:11:25;;;;;;;0.20;0.20;;;11.80;99.90;;;;;;4993494;28;20211;-70
2022/09/27 10:13:54;;;;;;;0.20;0.20;;;11.90;99.90;;;;;;4993243;28;20204;-70
2022/09/27 10:16:21;;;;;;;0.20;0.20;;;12.00;99.90;;;;;;5012837;28;20654;-70
2022/09/27 10:18:48;;;;;;;0.20;0.20;;;12.20;99.90;;;;;;5012616;28;20233;-70
2022/09/27 10:21:28;;;;;;;0.70;0.70;;;12.30;99.90;;;;;;5013090;28;20722;-69
2022/09/27 10:24:05;;;;;;;0.25;0.25;;;12.30;99.90;;;;;;5013103;28;20225;-69
2022/09/27 10:26:32;;;;;;;26.50;0.45;;;12.40;99.90;;;;;;5012651;28;20250;-70
2022/09/27 10:29:20;;;;;;;0.20;0.20;;;12.40;99.90;;;;;;5013004;28;20603;-69
2022/09/27 10:31:49;;;;;;;0.30;0.30;;;12.40;99.90;;;;;;5013046;28;20603;-70
2022/09/27 10:34:24;;;;;;;0.30;0.30;;;12.40;99.90;;;;;;5026448;28;20308;-70
2022/09/27 10:37:11;;;;;;;0.30;0.30;;;12.50;99.90;;;;;;5064594;28;20198;-70
2022/09/27 10:39:40;;;;;;;8.48;0.90;;;12.60;99.90;;;;;;5064471;28;20267;-70
2022/09/27 10:42:41;;;;;;;0.20;0.20;;;12.70;99.90;;;;;;5032458;28;20206;-70
2022/09/27 10:45:27;;;;;;;0.30;0.30;;;12.90;99.90;;;;;;5012058;28;20211;-70
2022/09/27 10:47:53;;;;;;;0.25;0.25;;;13.10;99.90;;;;;;5024748;28;20690;-70
2022/09/27 10:50:28;;;;;;;0.20;0.20;;;13.20;99.90;;;;;;4993179;28;20203;-70
2022/09/27 10:53:03;;;;;;;0.57;0.57;;;13.20;99.90;;;;;;5003656;28;20684;-70
2022/09/27 10:55:33;;;;;;;0.30;0.30;;;13.10;99.90;;;;;;5012733;28;20190;-70
2022/09/27 10:58:00;;;;;;;0.20;0.20;;;13.20;99.90;;;;;;5028053;28;20191;-70
2022/09/27 11:00:33;;;;;;;0.52;0.50;;;13.30;99.90;;;;;;5012481;28;20210;-70
2022/09/27 11:03:05;;;;;;;0.28;0.28;;;13.10;99.90;;;;;;5012922;28;20697;-70
2022/09/27 11:05:33;;;;;;;0.38;0.38;;;13.10;99.90;;;;;;5012597;28;20217;-68
2022/09/27 11:08:18;;;;;;;0.30;0.30;;;13.10;99.90;;;;;;5012820;28;20191;-70
2022/09/27 11:11:13;;;;;;;0.32;0.32;;;13.10;99.90;;;;;;5012378;28;20203;-70
2022/09/27 11:13:40;;;;;;;0.30;0.30;;;13.30;99.90;;;;;;5012548;28;20237;-69
2022/09/27 11:16:28;;;;;;;0.40;0.40;;;13.40;99.90;;;;;;5027862;28;20724;-69
2022/09/27 11:19:18;;;;;;;0.20;0.20;;;13.50;99.90;;;;;;5012700;28;20249;-70
2022/09/27 11:22:07;;;;;;;0.65;0.30;;;13.70;99.90;;;;;;5044308;28;20298;-70
2022/09/27 11:24:59;;;;;;;0.40;0.40;;;13.80;99.90;;;;;;5012496;28;20187;-70
2022/09/27 11:27:42;;;;;;;0.30;0.30;;;13.80;99.90;;;;;;4973608;28;20200;-69
2022/09/27 11:30:12;;;;;;;1.02;0.55;;;13.80;99.90;;;;;;4976078;28;20219;-69
2022/09/27 11:32:41;;;;;;;0.17;0.17;;;13.90;99.90;;;;;;4977032;28;20196;-69
2022/09/27 11:35:31;;;;;;;0.30;0.30;;;13.90;99.90;;;;;;4977217;28;20223;-69
2022/09/27 11:38:22;;;;;;;0.20;0.20;;;14.00;99.90;;;;;;4977172;28;20537;-69
2022/09/27 11:41:07;;;;;;;0.80;0.70;;;14.20;99.90;;;;;;4976871;28;20192;-69
2022/09/27 11:43:51;;;;;;;0.30;0.30;;;14.40;99.90;;;;;;4976978;28;20649;-69
2022/09/27 11:46:26;;;;;;;0.10;0.10;;;14.30;99.90;;;;;;4957673;28;20228;-70
2022/09/27 11:49:10;;;;;;;0.10;0.10;;;14.50;99.90;;;;;;4988654;28;20200;-70
2022/09/27 11:51:35;;;;;;;0.52;0.52;;;14.80;99.90;;;;;;4957386;28;20656;-70
2022/09/27 11:54:10;;;;;;;0.13;0.13;;;14.70;99.90;;;;;;4957497;28;20205;-70
2022/09/27 11:56:38;;;;;;;0.32;0.32;;;14.70;99.90;;;;;;4970616;28;20211;-71
2022/09/27 11:59:23;;;;;;;0.35;0.35;;;14.70;99.90;;;;;;4976858;28;20208;-71
2022/09/27 12:02:01;;;;;;;0.10;0.10;;;14.90;99.90;;;;;;5007903;28;20204;-71
2022/09/27 12:04:49;;;;;;;0.35;0.35;;;15.20;99.90;;;;;;5007771;28;20200;-71
2022/09/27 12:07:15;;;;;;;0.73;0.65;;;15.40;99.90;;;;;;4976414;28;20199;-72
2022/09/27 12:09:49;;;;;;;0.38;0.38;;;15.40;99.90;;;;;;4976333;28;20212;-72
2022/09/27 12:12:22;;;;;;;0.17;0.17;;;15.40;99.90;;;;;;4976652;28;20272;-72
2022/09/27 12:15:04;;;;;;;0.10;0.10;;;15.50;99.90;;;;;;4976483;28;20270;-72
2022/09/27 12:17:41;;;;;;;0.28;0.28;;;15.70;99.90;;;;;;4976379;28;20235;-72
2022/09/27 12:20:22;;;;;;;0.13;0.13;;;15.50;99.90;;;;;;4976422;28;20247;-72
2022/09/27 12:23:01;;;;;;;0.20;0.20;;;15.60;99.90;;;;;;4976310;28;20196;-70
2022/09/27 12:25:35;;;;;;;0.30;0.30;;;15.70;99.90;;;;;;4989982;28;20261;-71
2022/09/27 12:28:11;;;;;;;0.10;0.10;;;15.80;99.90;;;;;;5015259;28;20256;-71
2022/09/27 12:30:40;;;;;;;0.22;0.22;;;15.70;99.90;;;;;;5015042;28;20704;-72
2022/09/27 12:33:21;;;;;;;0.20;0.20;;;15.60;99.90;;;;;;5015253;28;20191;-71
2022/09/27 12:35:53;;;;;;;0.20;0.20;;;15.60;99.90;;;;;;5014970;28;20191;-71
2022/09/27 12:38:36;;;;;;;0.10;0.10;;;15.90;99.90;;;;;;5016503;28;20202;-70
2022/09/27 12:41:06;;;;;;;1.25;0.22;;;16.10;99.90;;;;;;5026233;28;20203;-70
2022/09/27 12:43:32;;;;;;;0.30;0.30;;;16.10;99.90;;;;;;4995280;28;20215;-70
2022/09/27 12:46:29;;;;;;;0.60;0.60;;;16.00;99.90;;;;;;4995157;28;20242;-71
2022/09/27 12:49:08;;;;;;;0.30;0.30;;;15.90;99.90;;;;;;4995397;28;20274;-70
2022/09/27 12:51:40;;;;;;;0.30;0.30;;;15.60;99.90;;;;;;4998102;28;20199;-71
2022/09/27 12:54:11;;;;;;;0.75;0.68;;;15.50;99.90;;;;;;5014844;28;20205;-70
2022/09/27 12:56:59;;;;;;;0.10;0.10;;;15.40;99.90;;;;;;5023448;28;20209;-71
2022/09/27 13:00:06;;;;;;;0.20;0.20;;;15.40;99.90;;;;;;5034291;28;20194;-71
2022/09/27 13:03:00;;;;;;;6.43;2.05;;;15.70;99.90;;;;;;5030872;28;20209;-70
2022/09/27 13:05:28;;;;;;;2.50;1.98;;;15.70;99.90;;;;;;4994890;28;20203;-70
2022/09/27 13:08:13;;;;;;;1.58;0.70;;;15.70;99.90;;;;;;4994979;28;20602;-71
2022/09/27 13:11:03;;;;;;;0.85;0.73;;;15.50;99.90;;;;;;4994713;28;20219;-70
2022/09/27 13:13:31;;;;;;;0.13;0.13;;;15.40;99.90;;;;;;4994877;28;20625;-70
2022/09/27 13:16:00;;;;;;;0.10;0.10;;;15.40;99.90;;;;;;4994960;28;20659;-71
2022/09/27 13:18:35;;;;;;;0.30;0.30;;;15.30;99.90;;;;;;4994607;28;20670;-71
2022/09/27 13:21:09;;;;;;;0.43;0.43;;;15.30;99.90;;;;;;4994619;28;20206;-70
2022/09/27 13:23:38;;;;;;;0.43;0.43;;;15.10;99.90;;;;;;4994898;28;20205;-71
2022/09/27 13:26:08;;;;;;;0.52;0.25;;;15.20;99.90;;;;;;4994465;28;20231;-70
2022/09/27 13:28:58;;;;;;;0.25;0.25;;;15.20;99.90;;;;;;4994606;28;20192;-71